createdAt,value
2018-03-14T00:00:43.638Z,99.90
2018-03-14T00:03:11.921Z,99.90
2018-03-14T00:05:43.811Z,99.90
2018-03-14T00:08:11.371Z,99.90
2018-03-14T00:10:38.881Z,99.90
2018-03-14T00:13:06.413Z,99.90
2018-03-14T00:15:33.924Z,99.90
2018-03-14T00:18:02.220Z,99.90
2018-03-14T00:20:29.730Z,99.90
2018-03-14T00:22:57.238Z,99.90
2018-03-14T00:25:24.773Z,99.90
2018-03-14T00:27:53.045Z,99.90
2018-03-14T00:30:21.342Z,99.90
2018-03-14T00:32:48.849Z,99.90
2018-03-14T00:35:16.377Z,99.90
2018-03-14T00:37:43.893Z,99.90
2018-03-14T00:40:12.194Z,99.90
2018-03-14T00:42:39.705Z,99.90
2018-03-14T00:45:07.218Z,99.90
2018-03-14T00:47:34.743Z,99.90
2018-03-14T00:50:02.635Z,99.90
2018-03-14T00:52:30.169Z,99.90
2018-03-14T00:54:57.684Z,99.90
2018-03-14T00:57:25.218Z,99.90
2018-03-14T00:59:52.738Z,99.90
2018-03-14T01:02:20.273Z,99.90
2018-03-14T01:04:47.788Z,99.90
2018-03-14T01:07:16.070Z,99.90
2018-03-14T01:09:44.378Z,99.90
2018-03-14T01:12:11.886Z,99.90
2018-03-14T01:14:40.186Z,99.90
2018-03-14T01:17:07.702Z,99.90
2018-03-14T01:19:35.235Z,99.90
2018-03-14T01:22:02.745Z,99.90
2018-03-14T01:24:31.033Z,99.90
2018-03-14T01:26:59.297Z,99.90
2018-03-14T01:29:27.560Z,99.90
2018-03-14T01:31:55.084Z,99.90
2018-03-14T01:34:22.611Z,99.90
2018-03-14T01:36:50.881Z,99.90
2018-03-14T01:39:19.141Z,99.90
2018-03-14T01:41:46.665Z,99.90
2018-03-14T01:44:14.168Z,99.90
2018-03-14T01:46:42.457Z,99.90
2018-03-14T01:49:09.969Z,99.90
2018-03-14T01:51:37.476Z,99.90
2018-03-14T01:54:05.002Z,99.90
2018-03-14T01:56:32.512Z,99.90
2018-03-14T01:59:00.028Z,99.90
2018-03-14T02:01:28.292Z,99.90
2018-03-14T02:03:55.813Z,99.90
2018-03-14T02:06:23.344Z,99.90
2018-03-14T02:08:50.840Z,99.90
2018-03-14T02:11:18.342Z,99.90
2018-03-14T02:13:46.609Z,99.90
2018-03-14T02:16:14.133Z,99.90
2018-03-14T02:18:41.643Z,99.90
2018-03-14T02:21:09.928Z,99.90
2018-03-14T02:23:37.434Z,99.90
2018-03-14T02:26:04.953Z,99.90
2018-03-14T02:28:32.452Z,99.90
2018-03-14T02:30:59.981Z,99.90
2018-03-14T02:33:27.480Z,99.90
2018-03-14T02:35:54.985Z,99.90
2018-03-14T02:38:22.516Z,99.90
2018-03-14T02:40:50.782Z,99.90
2018-03-14T02:43:18.301Z,99.90
2018-03-14T02:45:45.813Z,99.90
2018-03-14T02:48:13.321Z,99.90
2018-03-14T02:50:40.817Z,99.90
2018-03-14T02:53:08.321Z,99.90
2018-03-14T02:55:35.800Z,99.90
2018-03-14T02:58:03.289Z,99.90
2018-03-14T03:00:30.793Z,99.90
2018-03-14T03:02:58.273Z,99.90
2018-03-14T03:05:25.782Z,99.90
2018-03-14T03:07:53.265Z,99.90
2018-03-14T03:10:20.773Z,99.90
2018-03-14T03:12:48.278Z,99.90
2018-03-14T03:15:16.539Z,99.90
2018-03-14T03:17:44.801Z,99.90
2018-03-14T03:20:12.285Z,99.90
2018-03-14T03:22:40.552Z,99.90
2018-03-14T03:25:08.808Z,99.90
2018-03-14T03:27:36.322Z,99.90
2018-03-14T03:30:03.814Z,99.90
2018-03-14T03:32:31.325Z,99.90
2018-03-14T03:34:58.806Z,99.90
2018-03-14T03:37:26.313Z,99.90
2018-03-14T03:39:53.796Z,99.90
2018-03-14T03:42:21.294Z,99.90
2018-03-14T03:44:48.810Z,99.90
2018-03-14T03:47:16.301Z,99.90
2018-03-14T03:49:43.805Z,99.90
2018-03-14T03:52:12.061Z,99.90
2018-03-14T03:54:39.573Z,99.90
2018-03-14T03:57:07.062Z,99.90
2018-03-14T03:59:34.581Z,99.90
2018-03-14T04:02:02.074Z,99.90
2018-03-14T04:04:29.582Z,99.90
2018-03-14T04:06:57.858Z,99.90
2018-03-14T04:09:26.114Z,99.90
2018-03-14T04:11:53.629Z,99.90
2018-03-14T04:14:21.117Z,99.90
2018-03-14T04:16:48.633Z,99.90
2018-03-14T04:19:16.121Z,99.90
2018-03-14T04:21:43.634Z,99.90
2018-03-14T04:24:11.885Z,99.90
2018-03-14T04:26:39.383Z,99.90
2018-03-14T04:29:06.898Z,99.90
2018-03-14T04:31:34.417Z,99.90
2018-03-14T04:34:01.922Z,99.90
2018-03-14T04:36:29.413Z,99.90
2018-03-14T04:38:56.925Z,99.90
2018-03-14T04:41:24.422Z,99.90
2018-03-14T04:43:52.702Z,99.90
2018-03-14T04:46:20.194Z,99.90
2018-03-14T04:48:47.682Z,99.90
2018-03-14T04:51:15.198Z,99.90
2018-03-14T04:53:42.705Z,99.90
2018-03-14T04:56:10.225Z,99.90
2018-03-14T04:58:37.713Z,99.90
2018-03-14T05:01:05.223Z,99.90
2018-03-14T05:03:32.713Z,99.90
2018-03-14T05:06:00.223Z,99.90
2018-03-14T05:08:28.486Z,99.90
2018-03-14T05:10:56.747Z,99.90
2018-03-14T05:13:24.264Z,99.90
2018-03-14T05:15:51.754Z,99.90
2018-03-14T05:18:19.287Z,99.90
2018-03-14T05:20:46.779Z,99.90
2018-03-14T05:23:14.288Z,99.90
2018-03-14T05:25:41.797Z,99.90
2018-03-14T05:28:09.313Z,99.90
2018-03-14T05:30:36.809Z,99.90
2018-03-14T05:33:04.302Z,99.90
2018-03-14T05:35:32.581Z,99.90
2018-03-14T05:38:00.069Z,99.90
2018-03-14T05:40:27.586Z,99.90
2018-03-14T05:42:55.845Z,99.90
2018-03-14T05:45:23.358Z,99.90
2018-03-14T05:47:50.867Z,99.90
2018-03-14T05:50:18.377Z,99.90
2018-03-14T05:52:45.873Z,99.90
2018-03-14T05:55:13.370Z,99.90
2018-03-14T05:57:40.890Z,99.90
2018-03-14T06:00:08.386Z,99.90
2018-03-14T06:02:35.901Z,99.90
2018-03-14T06:05:03.385Z,99.90
2018-03-14T06:07:31.665Z,99.90
2018-03-14T06:09:59.928Z,99.90
2018-03-14T06:12:27.446Z,99.90
2018-03-14T06:14:54.938Z,99.90
2018-03-14T06:17:22.439Z,99.90
2018-03-14T06:19:49.954Z,99.90
2018-03-14T06:22:17.450Z,99.90
2018-03-14T06:24:44.960Z,99.90
2018-03-14T06:27:12.454Z,99.90
2018-03-14T06:29:40.917Z,99.90
2018-03-14T06:32:09.177Z,99.90
2018-03-14T06:34:36.694Z,99.90
2018-03-14T06:37:04.193Z,99.90
2018-03-14T06:39:31.685Z,99.90
2018-03-14T06:41:59.966Z,99.90
2018-03-14T06:44:27.466Z,99.90
2018-03-14T06:46:54.988Z,99.90
2018-03-14T06:49:22.478Z,99.90
2018-03-14T06:51:49.993Z,99.90
2018-03-14T06:54:18.249Z,99.90
2018-03-14T06:56:45.764Z,99.90
2018-03-14T06:59:25.165Z,99.90
2018-03-14T07:02:05.459Z,99.90
2018-03-14T07:04:41.206Z,99.90
2018-03-14T07:07:08.725Z,99.90
2018-03-14T07:09:36.988Z,99.90
2018-03-14T07:12:04.478Z,99.90
2018-03-14T07:14:31.989Z,99.90
2018-03-14T07:16:59.478Z,99.90
2018-03-14T07:19:27.757Z,99.90
2018-03-14T07:21:56.015Z,99.90
2018-03-14T07:24:25.041Z,99.90
2018-03-14T07:26:52.538Z,99.90
2018-03-14T07:29:20.054Z,99.90
2018-03-14T07:31:47.549Z,99.90
2018-03-14T07:34:15.042Z,99.90
2018-03-14T07:36:42.562Z,99.90
2018-03-14T07:39:10.058Z,99.90
2018-03-14T07:41:37.574Z,99.90
2018-03-14T07:44:05.066Z,99.90
2018-03-14T07:46:32.577Z,99.90
2018-03-14T07:49:00.069Z,99.90
2018-03-14T07:51:27.581Z,99.90
2018-03-14T07:53:55.070Z,99.90
2018-03-14T07:56:22.567Z,99.90
2018-03-14T07:58:50.081Z,99.90
2018-03-14T08:01:17.572Z,99.90
2018-03-14T08:03:45.078Z,99.90
2018-03-14T08:06:12.570Z,99.90
2018-03-14T08:08:40.089Z,99.90
2018-03-14T08:11:07.577Z,99.90
2018-03-14T08:13:35.185Z,99.90
2018-03-14T08:16:02.607Z,99.90
2018-03-14T08:18:30.098Z,99.90
2018-03-14T08:20:58.381Z,99.90
2018-03-14T08:23:26.638Z,99.90
2018-03-14T08:25:54.181Z,99.90
2018-03-14T08:28:21.660Z,99.90
2018-03-14T08:30:49.173Z,99.90
2018-03-14T08:33:16.666Z,99.90
2018-03-14T08:35:44.178Z,99.90
2018-03-14T08:38:11.703Z,99.90
2018-03-14T08:40:39.195Z,99.90
2018-03-14T08:43:06.714Z,99.90
2018-03-14T08:45:34.205Z,99.90
2018-03-14T08:48:01.723Z,99.90
2018-03-14T08:50:29.221Z,99.90
2018-03-14T08:52:56.734Z,99.90
2018-03-14T08:55:24.221Z,99.90
2018-03-14T08:57:52.497Z,99.90
2018-03-14T09:00:20.753Z,99.90
2018-03-14T09:02:48.245Z,99.90
2018-03-14T09:05:15.759Z,99.90
2018-03-14T09:07:43.249Z,99.90
2018-03-14T09:10:10.778Z,99.90
2018-03-14T09:12:39.034Z,99.90
2018-03-14T09:15:06.546Z,99.90
2018-03-14T09:17:34.045Z,99.90
2018-03-14T09:20:01.561Z,99.90
2018-03-14T09:22:29.816Z,99.90
2018-03-14T09:24:58.080Z,99.90
2018-03-14T09:27:25.590Z,99.90
2018-03-14T09:29:53.073Z,99.90
2018-03-14T09:32:20.585Z,99.60
2018-03-14T09:34:48.849Z,99.30
2018-03-14T09:37:17.133Z,98.90
2018-03-14T09:39:45.411Z,98.60
2018-03-14T09:42:13.694Z,98.20
2018-03-14T09:44:41.953Z,98.10
2018-03-14T09:47:10.217Z,97.60
2018-03-14T09:49:37.733Z,97.60
2018-03-14T09:52:05.230Z,97.10
2018-03-14T09:54:32.754Z,97.20
2018-03-14T09:57:00.245Z,96.90
2018-03-14T09:59:27.768Z,97.20
2018-03-14T10:01:55.257Z,96.90
2018-03-14T10:04:22.776Z,96.70
2018-03-14T10:06:50.269Z,96.60
2018-03-14T10:09:17.762Z,96.30
2018-03-14T10:11:46.041Z,96.30
2018-03-14T10:14:14.306Z,96.30
2018-03-14T10:16:42.589Z,96.10
2018-03-14T10:19:10.906Z,95.50
2018-03-14T10:21:39.141Z,95.70
2018-03-14T10:24:07.402Z,95.40
2018-03-14T10:26:34.922Z,95.40
2018-03-14T10:29:02.446Z,95.00
2018-03-14T10:31:30.690Z,95.00
2018-03-14T10:33:58.210Z,95.00
2018-03-14T10:36:25.700Z,94.70
2018-03-14T10:38:53.215Z,94.80
2018-03-14T10:41:20.708Z,94.90
2018-03-14T10:43:48.223Z,95.00
2018-03-14T10:46:15.718Z,94.60
2018-03-14T10:48:43.237Z,95.10
2018-03-14T10:51:10.730Z,93.80
2018-03-14T10:53:38.221Z,93.90
2018-03-14T10:56:05.753Z,94.30
2018-03-14T10:58:33.269Z,93.50
2018-03-14T11:01:07.175Z,94.00
2018-03-14T11:03:36.237Z,93.90
2018-03-14T11:06:03.749Z,93.90
2018-03-14T11:08:31.243Z,94.40
2018-03-14T11:10:58.793Z,95.00
2018-03-14T11:13:26.270Z,96.10
2018-03-14T11:15:53.761Z,95.10
2018-03-14T11:18:22.040Z,94.50
2018-03-14T11:20:49.530Z,94.50
2018-03-14T11:23:17.046Z,94.90
2018-03-14T11:25:45.301Z,94.30
2018-03-14T11:28:12.813Z,94.20
2018-03-14T11:30:40.310Z,93.70
2018-03-14T11:33:08.589Z,93.80
2018-03-14T11:35:36.081Z,93.80
2018-03-14T11:38:04.338Z,93.70
2018-03-14T11:40:31.857Z,93.70
2018-03-14T11:42:59.346Z,93.70
2018-03-14T11:45:27.625Z,93.00
2018-03-14T11:47:55.117Z,93.00
2018-03-14T11:50:22.629Z,92.30
2018-03-14T11:52:50.121Z,92.70
2018-03-14T11:55:18.408Z,92.70
2018-03-14T11:57:45.893Z,92.60
2018-03-14T12:00:13.382Z,92.40
2018-03-14T12:02:40.895Z,92.60
2018-03-14T12:05:08.385Z,92.70
2018-03-14T12:07:35.898Z,92.50
2018-03-14T12:10:03.389Z,92.90
2018-03-14T12:12:30.901Z,93.00
2018-03-14T12:14:59.157Z,92.80
2018-03-14T12:17:26.669Z,92.70
2018-03-14T12:19:54.161Z,93.10
2018-03-14T12:22:27.237Z,93.00
2018-03-14T12:24:54.725Z,92.40
2018-03-14T12:27:22.982Z,92.40
2018-03-14T12:29:50.491Z,92.40
2018-03-14T12:32:17.982Z,92.30
2018-03-14T12:34:45.500Z,92.80
2018-03-14T12:37:13.001Z,92.50
2018-03-14T12:39:40.514Z,92.00
2018-03-14T12:42:08.770Z,91.10
2018-03-14T12:44:36.277Z,91.10
2018-03-14T12:47:03.769Z,91.20
2018-03-14T12:49:31.261Z,91.50
2018-03-14T12:51:59.533Z,90.60
2018-03-14T12:54:27.785Z,90.40
2018-03-14T12:56:55.306Z,90.40
2018-03-14T12:59:22.793Z,89.90
2018-03-14T13:01:50.302Z,88.20
2018-03-14T13:04:17.809Z,85.70
2018-03-14T13:06:45.330Z,84.70
2018-03-14T13:09:12.825Z,84.50
2018-03-14T13:11:40.409Z,83.00
2018-03-14T13:14:07.858Z,80.90
2018-03-14T13:16:35.353Z,78.40
2018-03-14T13:19:02.865Z,77.90
2018-03-14T13:21:30.358Z,77.90
2018-03-14T13:23:58.638Z,76.70
2018-03-14T13:26:26.894Z,77.50
2018-03-14T13:28:55.181Z,78.60
2018-03-14T13:31:23.441Z,79.00
2018-03-14T13:33:51.701Z,79.90
2018-03-14T13:36:19.221Z,79.80
2018-03-14T13:38:46.713Z,79.70
2018-03-14T13:41:14.225Z,79.60
2018-03-14T13:43:41.717Z,79.50
2018-03-14T13:46:09.235Z,79.10
2018-03-14T13:48:37.494Z,77.10
2018-03-14T13:51:05.776Z,75.00
2018-03-14T13:53:34.034Z,73.60
2018-03-14T13:56:01.529Z,73.60
2018-03-14T13:58:29.049Z,74.10
2018-03-14T14:00:56.541Z,75.10
2018-03-14T14:03:24.946Z,75.60
2018-03-14T14:05:52.437Z,73.00
2018-03-14T14:08:19.957Z,73.60
2018-03-14T14:10:47.448Z,72.80
2018-03-14T14:13:14.971Z,73.50
2018-03-14T14:15:42.481Z,74.10
2018-03-14T14:18:09.987Z,74.80
2018-03-14T14:20:37.506Z,76.50
2018-03-14T14:23:05.765Z,76.50
2018-03-14T14:25:33.281Z,75.30
2018-03-14T14:28:00.774Z,75.30
2018-03-14T14:30:28.333Z,76.30
2018-03-14T14:32:55.805Z,76.60
2018-03-14T14:35:24.086Z,71.20
2018-03-14T14:37:52.345Z,69.60
2018-03-14T14:40:19.837Z,69.70
2018-03-14T14:42:48.118Z,69.60
2018-03-14T14:45:16.385Z,71.20
2018-03-14T14:47:44.671Z,70.20
2018-03-14T14:50:12.933Z,71.70
2018-03-14T14:52:41.222Z,70.40
2018-03-14T14:55:09.481Z,73.30
2018-03-14T14:57:36.997Z,73.30
2018-03-14T15:00:04.489Z,70.90
2018-03-14T15:02:31.993Z,71.50
2018-03-14T15:04:59.512Z,73.40
2018-03-14T15:07:27.005Z,74.20
2018-03-14T15:09:54.518Z,76.10
2018-03-14T15:12:22.009Z,75.20
2018-03-14T15:14:50.290Z,74.60
2018-03-14T15:17:17.790Z,74.50
2018-03-14T15:19:45.319Z,74.20
2018-03-14T15:22:12.814Z,74.50
2018-03-14T15:24:40.310Z,76.40
2018-03-14T15:27:08.598Z,78.30
2018-03-14T15:29:36.866Z,78.80
2018-03-14T15:32:05.153Z,80.00
2018-03-14T15:34:33.418Z,79.40
2018-03-14T15:37:01.709Z,79.30
2018-03-14T15:39:29.226Z,79.30
2018-03-14T15:41:56.753Z,80.90
2018-03-14T15:44:24.245Z,81.10
2018-03-14T15:46:51.742Z,80.00
2018-03-14T15:49:19.264Z,79.90
2018-03-14T15:51:46.765Z,80.10
2018-03-14T15:54:14.282Z,80.20
2018-03-14T15:56:41.782Z,80.70
2018-03-14T15:59:09.297Z,81.40
2018-03-14T16:01:36.803Z,82.00
2018-03-14T16:04:04.332Z,82.70
2018-03-14T16:06:32.590Z,78.70
2018-03-14T16:09:00.100Z,78.60
2018-03-14T16:11:27.642Z,78.90
2018-03-14T16:13:55.142Z,78.90
2018-03-14T16:16:22.657Z,79.60
2018-03-14T16:18:50.922Z,80.50
2018-03-14T16:21:19.201Z,81.10
2018-03-14T16:23:47.461Z,82.80
2018-03-14T16:26:14.974Z,82.80
2018-03-14T16:28:42.466Z,83.50
2018-03-14T16:31:09.979Z,83.80
2018-03-14T16:33:37.469Z,84.10
2018-03-14T16:36:04.961Z,84.00
2018-03-14T16:38:33.242Z,83.80
2018-03-14T16:41:01.498Z,84.40
2018-03-14T16:43:30.509Z,84.20
2018-03-14T16:45:58.765Z,84.40
2018-03-14T16:48:26.278Z,84.40
2018-03-14T16:50:53.830Z,84.50
2018-03-14T16:53:21.345Z,85.00
2018-03-14T16:55:48.838Z,85.80
2018-03-14T16:58:16.329Z,86.90
2018-03-14T17:00:43.842Z,89.40
2018-03-14T17:03:12.146Z,90.00
2018-03-14T17:05:40.401Z,90.10
2018-03-14T17:08:08.658Z,90.40
2018-03-14T17:10:36.174Z,90.40
2018-03-14T17:13:03.672Z,90.30
2018-03-14T17:15:31.191Z,90.40
2018-03-14T17:17:58.693Z,90.80
2018-03-14T17:20:26.192Z,90.90
2018-03-14T17:22:53.714Z,91.00
2018-03-14T17:25:21.976Z,91.70
2018-03-14T17:27:49.494Z,91.30
2018-03-14T17:30:16.990Z,91.50
2018-03-14T17:32:44.514Z,91.60
2018-03-14T17:35:12.026Z,91.80
2018-03-14T17:37:40.307Z,92.30
2018-03-14T17:40:08.581Z,92.40
2018-03-14T17:42:36.842Z,92.60
2018-03-14T17:45:04.363Z,92.50
2018-03-14T17:47:31.853Z,92.60
2018-03-14T17:49:59.378Z,92.90
2018-03-14T17:52:26.873Z,92.90
2018-03-14T17:54:54.385Z,93.10
2018-03-14T17:57:21.873Z,93.20
2018-03-14T17:59:49.392Z,93.30
2018-03-14T18:02:16.886Z,93.40
2018-03-14T18:04:44.405Z,93.60
2018-03-14T18:07:11.899Z,93.70
2018-03-14T18:09:39.404Z,93.80
2018-03-14T18:12:07.699Z,94.20
2018-03-14T18:14:35.191Z,94.20
2018-03-14T18:17:02.706Z,94.10
2018-03-14T18:19:30.197Z,94.30
2018-03-14T18:21:57.713Z,94.40
2018-03-14T18:24:25.970Z,94.60
2018-03-14T18:26:53.486Z,94.60
2018-03-14T18:29:20.982Z,94.70
2018-03-14T18:31:48.478Z,94.80
2018-03-14T18:34:15.997Z,94.90
2018-03-14T18:36:43.488Z,95.00
2018-03-14T18:39:11.770Z,95.10
2018-03-14T18:41:39.266Z,95.10
2018-03-14T18:44:06.785Z,95.30
2018-03-14T18:46:34.277Z,95.20
2018-03-14T18:49:01.770Z,95.30
2018-03-14T18:51:29.294Z,95.30
2018-03-14T18:53:56.785Z,95.30
2018-03-14T18:56:24.322Z,95.40
2018-03-14T18:58:51.818Z,95.30
2018-03-14T19:01:20.106Z,95.50
2018-03-14T19:03:47.610Z,95.50
2018-03-14T19:06:15.103Z,95.40
2018-03-14T19:08:42.617Z,95.50
2018-03-14T19:11:10.114Z,95.80
2018-03-14T19:13:37.625Z,95.50
2018-03-14T19:16:05.118Z,95.70
2018-03-14T19:18:32.634Z,95.70
2018-03-14T19:21:00.134Z,95.80
2018-03-14T19:23:27.652Z,95.80
2018-03-14T19:25:55.154Z,95.80
2018-03-14T19:28:22.646Z,95.80
2018-03-14T19:30:50.926Z,96.00
2018-03-14T19:33:19.185Z,95.90
2018-03-14T19:35:47.469Z,96.00
2018-03-14T19:38:15.725Z,96.00
2018-03-14T19:40:43.236Z,96.00
2018-03-14T19:43:10.729Z,96.10
2018-03-14T19:45:38.254Z,96.20
2018-03-14T19:48:05.810Z,96.30
2018-03-14T19:50:33.301Z,96.20
2018-03-14T19:53:00.829Z,96.30
2018-03-14T19:55:28.322Z,96.30
2018-03-14T19:57:55.845Z,96.30
2018-03-14T20:00:23.342Z,96.20
2018-03-14T20:02:50.857Z,96.30
2018-03-14T20:05:18.349Z,96.20
2018-03-14T20:07:45.841Z,96.30
2018-03-14T20:10:14.118Z,96.20
2018-03-14T20:12:42.373Z,96.30
2018-03-14T20:15:09.886Z,96.30
2018-03-14T20:17:37.381Z,96.30
2018-03-14T20:20:04.897Z,96.30
2018-03-14T20:22:32.404Z,96.30
2018-03-14T20:24:59.897Z,96.30
2018-03-14T20:27:28.178Z,96.40
2018-03-14T20:29:55.674Z,96.40
2018-03-14T20:32:23.193Z,96.40
2018-03-14T20:34:51.449Z,96.50
2018-03-14T20:37:18.961Z,96.50
2018-03-14T20:39:46.453Z,96.50
2018-03-14T20:42:13.946Z,96.60
2018-03-14T20:44:41.457Z,96.60
2018-03-14T20:47:08.958Z,96.80
2018-03-14T20:49:37.240Z,96.70
2018-03-14T20:52:04.738Z,96.70
2018-03-14T20:54:32.300Z,96.40
2018-03-14T20:56:59.766Z,96.70
2018-03-14T20:59:27.262Z,96.80
2018-03-14T21:01:55.537Z,97.20
2018-03-14T21:04:23.797Z,97.20
2018-03-14T21:06:51.313Z,97.20
2018-03-14T21:09:18.801Z,97.20
2018-03-14T21:11:47.826Z,97.20
2018-03-14T21:14:16.081Z,97.00
2018-03-14T21:16:43.690Z,97.00
2018-03-14T21:19:11.205Z,97.00
2018-03-14T21:21:39.474Z,96.90
2018-03-14T21:24:07.758Z,96.90
2018-03-14T21:26:35.254Z,96.90
2018-03-14T21:29:02.775Z,96.90
2018-03-14T21:31:31.038Z,97.30
2018-03-14T21:33:58.554Z,96.90
2018-03-14T21:36:26.810Z,96.90
2018-03-14T21:38:54.306Z,96.90
2018-03-14T21:41:21.844Z,96.90
2018-03-14T21:43:49.337Z,96.70
2018-03-14T21:46:16.850Z,96.60
2018-03-14T21:48:44.342Z,96.70
2018-03-14T21:51:11.951Z,97.10
2018-03-14T21:53:39.378Z,97.20
2018-03-14T21:56:06.874Z,97.40
2018-03-14T21:58:35.157Z,97.30
2018-03-14T22:01:02.650Z,97.30
2018-03-14T22:03:30.198Z,97.30
2018-03-14T22:05:57.676Z,96.90
2018-03-14T22:08:25.285Z,96.90
2018-03-14T22:10:52.702Z,96.90
2018-03-14T22:13:20.214Z,96.90
2018-03-14T22:15:47.709Z,96.80
2018-03-14T22:18:15.206Z,96.70
2018-03-14T22:20:43.486Z,96.70
2018-03-14T22:23:11.741Z,96.60
2018-03-14T22:25:39.258Z,96.50
2018-03-14T22:28:06.750Z,96.50
2018-03-14T22:30:34.262Z,96.50
2018-03-14T22:33:01.762Z,96.50
2018-03-14T22:35:29.258Z,96.60
2018-03-14T22:37:57.537Z,96.60
2018-03-14T22:40:25.798Z,96.70
2018-03-14T22:42:54.080Z,96.90
2018-03-14T22:45:22.338Z,96.70
2018-03-14T22:47:49.865Z,96.70
2018-03-14T22:50:17.354Z,96.70
2018-03-14T22:52:44.842Z,96.70
2018-03-14T22:55:13.121Z,96.80
2018-03-14T22:57:40.618Z,96.70
2018-03-14T23:00:08.129Z,96.80
2018-03-14T23:02:36.390Z,96.80
2018-03-14T23:05:03.908Z,96.80
2018-03-14T23:07:31.412Z,97.20
2018-03-14T23:09:59.678Z,96.90
2018-03-14T23:12:27.189Z,96.80
2018-03-14T23:14:54.677Z,96.80
2018-03-14T23:17:22.189Z,96.80
2018-03-14T23:19:49.685Z,96.80
2018-03-14T23:22:17.202Z,96.90
2018-03-14T23:24:44.698Z,96.90
2018-03-14T23:27:12.190Z,96.90
2018-03-14T23:29:39.711Z,97.00
2018-03-14T23:32:07.214Z,97.20
2018-03-14T23:34:35.494Z,97.00
2018-03-14T23:37:03.767Z,97.10
2018-03-14T23:39:32.026Z,97.00
2018-03-14T23:41:59.552Z,96.90
2018-03-14T23:44:27.041Z,96.70
2018-03-14T23:46:54.557Z,97.00
2018-03-14T23:49:22.055Z,97.00
2018-03-14T23:51:49.574Z,97.00
2018-03-14T23:54:17.066Z,97.30
2018-03-14T23:56:44.562Z,97.00
2018-03-14T23:59:12.843Z,97.00
